BAW235 EDDK-EGKK
Flight info
| Callsign | BAW235 |
|---|---|
| Flight time | 0h 58m |
| Altitude | 32000 |
| Route | NVO2R NVO Y868 SOGRI L608 DENUT L610 TEBRA |
| Aircraft | B772/H-SDE2E3FGHIJ5LORVWXY/LB1D1 |
Departure
| Time | 2026-05-06 19:44 |
|---|---|
| Airport | Cologne Bonn Airport (EDDK) |
Arrival
| Time | 2026-05-06 20:43 |
|---|---|
| Airport | London Gatwick Airport (EGKK) |
| Time | Latitude | Longitude | Altitude | Speed | Heading |
|---|---|---|---|---|---|
| 2026-05-06 19:23 | 50.86808 | 7.13910 | 249 ft | 0 kts | 227° |
| 2026-05-06 19:34 | 50.86817 | 7.13925 | 249 ft | 2 kts | 214° |
| 2026-05-06 19:34 | 50.86830 | 7.13940 | 249 ft | 2 kts | 209° |
| 2026-05-06 19:35 | 50.86845 | 7.13951 | 248 ft | 2 kts | 198° |
| 2026-05-06 19:35 | 50.86861 | 7.13957 | 248 ft | 2 kts | 183° |
| 2026-05-06 19:35 | 50.86877 | 7.13956 | 247 ft | 2 kts | 169° |
| 2026-05-06 19:35 | 50.86893 | 7.13950 | 247 ft | 2 kts | 158° |
| 2026-05-06 19:36 | 50.86908 | 7.13938 | 247 ft | 2 kts | 149° |
| 2026-05-06 19:36 | 50.86921 | 7.13924 | 248 ft | 2 kts | 141° |
| 2026-05-06 19:36 | 50.86930 | 7.13913 | 248 ft | 1 kts | 138° |
| 2026-05-06 19:36 | 50.86931 | 7.13911 | 248 ft | 0 kts | 137° |
| 2026-05-06 19:38 | 50.86922 | 7.13924 | 248 ft | 6 kts | 137° |
| 2026-05-06 19:39 | 50.86871 | 7.13998 | 249 ft | 13 kts | 137° |
| 2026-05-06 19:39 | 50.86793 | 7.14106 | 254 ft | 16 kts | 149° |
| 2026-05-06 19:39 | 50.86703 | 7.14185 | 259 ft | 7 kts | 138° |
| 2026-05-06 19:39 | 50.86702 | 7.14186 | 259 ft | 0 kts | 137° |
| 2026-05-06 19:40 | 50.86684 | 7.14212 | 260 ft | 10 kts | 138° |
| 2026-05-06 19:40 | 50.86598 | 7.14334 | 262 ft | 23 kts | 137° |
| 2026-05-06 19:40 | 50.86449 | 7.14548 | 266 ft | 32 kts | 137° |
| 2026-05-06 19:41 | 50.86292 | 7.14776 | 272 ft | 30 kts | 137° |
| 2026-05-06 19:41 | 50.86138 | 7.15001 | 277 ft | 30 kts | 137° |
| 2026-05-06 19:41 | 50.85986 | 7.15226 | 283 ft | 30 kts | 137° |
| 2026-05-06 19:41 | 50.85829 | 7.15451 | 297 ft | 30 kts | 140° |
| 2026-05-06 19:42 | 50.85677 | 7.15667 | 304 ft | 30 kts | 137° |
| 2026-05-06 19:42 | 50.85523 | 7.15889 | 306 ft | 30 kts | 137° |
| 2026-05-06 19:42 | 50.85373 | 7.16118 | 311 ft | 30 kts | 127° |
| 2026-05-06 19:42 | 50.85360 | 7.16391 | 316 ft | 17 kts | 62° |
| 2026-05-06 19:43 | 50.85419 | 7.16480 | 318 ft | 11 kts | 30° |
| 2026-05-06 19:43 | 50.85509 | 7.16517 | 318 ft | 17 kts | 9° |
| 2026-05-06 19:43 | 50.85603 | 7.16450 | 316 ft | 0 kts | 316° |
| 2026-05-06 19:44 | 50.85750 | 7.16237 | 311 ft | 78 kts | 317° |
| 2026-05-06 19:44 | 50.86427 | 7.15293 | 391 ft | 169 kts | 320° |
| 2026-05-06 19:44 | 50.87408 | 7.13945 | 1313 ft | 203 kts | 319° |
| 2026-05-06 19:45 | 50.88555 | 7.12223 | 2107 ft | 253 kts | 316° |
| 2026-05-06 19:45 | 50.89802 | 7.10199 | 3946 ft | 248 kts | 314° |
| 2026-05-06 19:45 | 50.90888 | 7.08253 | 6488 ft | 222 kts | 311° |
| 2026-05-06 19:45 | 50.91778 | 7.06428 | 8462 ft | 206 kts | 309° |
| 2026-05-06 19:46 | 50.92570 | 7.04532 | 9803 ft | 211 kts | 305° |
| 2026-05-06 19:46 | 50.93280 | 7.02478 | 10930 ft | 213 kts | 299° |
| 2026-05-06 19:46 | 50.93870 | 7.00289 | 12027 ft | 218 kts | 293° |
| 2026-05-06 19:46 | 50.94216 | 6.97762 | 12206 ft | 268 kts | 263° |
| 2026-05-06 19:47 | 50.93141 | 6.95136 | 11882 ft | 305 kts | 214° |
| 2026-05-06 19:47 | 50.91212 | 6.93769 | 11609 ft | 303 kts | 202° |
| 2026-05-06 19:47 | 50.89421 | 6.92028 | 11256 ft | 304 kts | 228° |
| 2026-05-06 19:47 | 50.88194 | 6.89334 | 10917 ft | 303 kts | 243° |
| 2026-05-06 19:48 | 50.87268 | 6.86300 | 10352 ft | 310 kts | 250° |
| 2026-05-06 19:48 | 50.86478 | 6.83091 | 9785 ft | 317 kts | 252° |
| 2026-05-06 19:48 | 50.85746 | 6.79819 | 9568 ft | 310 kts | 253° |
| 2026-05-06 19:48 | 50.85073 | 6.76695 | 9548 ft | 297 kts | 254° |
| 2026-05-06 19:49 | 50.84417 | 6.73610 | 9512 ft | 289 kts | 254° |
| 2026-05-06 19:49 | 50.83771 | 6.70579 | 9518 ft | 293 kts | 254° |
| 2026-05-06 19:49 | 50.83116 | 6.67511 | 9611 ft | 295 kts | 254° |
| 2026-05-06 19:49 | 50.82474 | 6.64486 | 9855 ft | 293 kts | 256° |
| 2026-05-06 19:50 | 50.82203 | 6.61250 | 10120 ft | 315 kts | 274° |
| 2026-05-06 19:50 | 50.82264 | 6.58809 | 10403 ft | 341 kts | 275° |
| 2026-05-06 19:50 | 50.82362 | 6.55022 | 10752 ft | 342 kts | 273° |
| 2026-05-06 19:50 | 50.82437 | 6.51249 | 11117 ft | 345 kts | 273° |
| 2026-05-06 19:51 | 50.82500 | 6.47428 | 11514 ft | 350 kts | 273° |
| 2026-05-06 19:51 | 50.82556 | 6.43564 | 11936 ft | 351 kts | 272° |
| 2026-05-06 19:51 | 50.82606 | 6.39711 | 12455 ft | 351 kts | 272° |
| 2026-05-06 19:51 | 50.82653 | 6.35842 | 12984 ft | 351 kts | 272° |
| 2026-05-06 19:52 | 50.82699 | 6.31963 | 13528 ft | 353 kts | 272° |
| 2026-05-06 19:52 | 50.82742 | 6.28055 | 14032 ft | 356 kts | 272° |
| 2026-05-06 19:52 | 50.82784 | 6.24208 | 14508 ft | 359 kts | 272° |
| 2026-05-06 19:52 | 50.82826 | 6.20176 | 15020 ft | 362 kts | 272° |
| 2026-05-06 19:53 | 50.82866 | 6.16183 | 15523 ft | 365 kts | 272° |
| 2026-05-06 19:53 | 50.82906 | 6.12162 | 16034 ft | 367 kts | 271° |
| 2026-05-06 19:53 | 50.82945 | 6.08112 | 16550 ft | 370 kts | 271° |
| 2026-05-06 19:53 | 50.82982 | 6.04021 | 17105 ft | 383 kts | 271° |
| 2026-05-06 19:54 | 50.82988 | 5.99756 | 17654 ft | 390 kts | 269° |
| 2026-05-06 19:54 | 50.82866 | 5.95467 | 18193 ft | 390 kts | 268° |
| 2026-05-06 19:54 | 50.83056 | 5.91174 | 18653 ft | 396 kts | 281° |
| 2026-05-06 19:54 | 50.83759 | 5.86924 | 19161 ft | 403 kts | 287° |
| 2026-05-06 19:55 | 50.84641 | 5.82696 | 19653 ft | 406 kts | 288° |
| 2026-05-06 19:55 | 50.85550 | 5.78447 | 20149 ft | 408 kts | 288° |
| 2026-05-06 19:55 | 50.86427 | 5.74178 | 20649 ft | 409 kts | 287° |
| 2026-05-06 19:55 | 50.87265 | 5.69858 | 21158 ft | 411 kts | 286° |
| 2026-05-06 19:56 | 50.88068 | 5.65503 | 21686 ft | 413 kts | 285° |
| 2026-05-06 19:56 | 50.88850 | 5.61102 | 22245 ft | 416 kts | 285° |
| 2026-05-06 19:56 | 50.89620 | 5.56666 | 22797 ft | 419 kts | 285° |
| 2026-05-06 19:56 | 50.90386 | 5.52189 | 23348 ft | 422 kts | 284° |
| 2026-05-06 19:57 | 50.91128 | 5.47814 | 23820 ft | 425 kts | 284° |
| 2026-05-06 19:57 | 50.91896 | 5.43269 | 24309 ft | 428 kts | 284° |
| 2026-05-06 19:57 | 50.92665 | 5.38705 | 24792 ft | 432 kts | 284° |
| 2026-05-06 19:57 | 50.93439 | 5.34103 | 25292 ft | 434 kts | 284° |
| 2026-05-06 19:58 | 50.94222 | 5.29436 | 25794 ft | 438 kts | 284° |
| 2026-05-06 19:58 | 50.95010 | 5.24728 | 25945 ft | 444 kts | 284° |
| 2026-05-06 19:58 | 50.95802 | 5.19992 | 25932 ft | 442 kts | 284° |
| 2026-05-06 19:58 | 50.96585 | 5.15293 | 25931 ft | 439 kts | 284° |
| 2026-05-06 19:59 | 50.97366 | 5.10596 | 25933 ft | 439 kts | 284° |
| 2026-05-06 19:59 | 50.98145 | 5.05895 | 25944 ft | 440 kts | 284° |
| 2026-05-06 19:59 | 50.98923 | 5.01194 | 25943 ft | 441 kts | 284° |
| 2026-05-06 19:59 | 50.99699 | 4.96483 | 25942 ft | 441 kts | 284° |
| 2026-05-06 20:00 | 51.00475 | 4.91764 | 25942 ft | 441 kts | 284° |
| 2026-05-06 20:00 | 51.01247 | 4.87054 | 25950 ft | 441 kts | 284° |
| 2026-05-06 20:00 | 51.02009 | 4.82395 | 25951 ft | 441 kts | 284° |
| 2026-05-06 20:00 | 51.02786 | 4.77625 | 25950 ft | 441 kts | 284° |
| 2026-05-06 20:01 | 51.03546 | 4.72955 | 25950 ft | 440 kts | 284° |
| 2026-05-06 20:01 | 51.04310 | 4.68239 | 25948 ft | 440 kts | 284° |
| 2026-05-06 20:01 | 51.05071 | 4.63530 | 25944 ft | 440 kts | 284° |
| 2026-05-06 20:01 | 51.05829 | 4.58830 | 25963 ft | 439 kts | 284° |
| 2026-05-06 20:02 | 51.06594 | 4.54068 | 25981 ft | 453 kts | 284° |
| 2026-05-06 20:02 | 51.07385 | 4.49131 | 25981 ft | 465 kts | 284° |
| 2026-05-06 20:02 | 51.08183 | 4.44139 | 25971 ft | 467 kts | 284° |
| 2026-05-06 20:02 | 51.08981 | 4.39128 | 25963 ft | 466 kts | 283° |
| 2026-05-06 20:03 | 51.09775 | 4.34135 | 25961 ft | 466 kts | 283° |
| 2026-05-06 20:03 | 51.10566 | 4.29139 | 25962 ft | 465 kts | 283° |
| 2026-05-06 20:03 | 51.11344 | 4.24210 | 25963 ft | 465 kts | 283° |
| 2026-05-06 20:03 | 51.12130 | 4.19217 | 25963 ft | 465 kts | 283° |
| 2026-05-06 20:04 | 51.12914 | 4.14225 | 25961 ft | 465 kts | 283° |
| 2026-05-06 20:04 | 51.13697 | 4.09219 | 25958 ft | 465 kts | 283° |
| 2026-05-06 20:04 | 51.14477 | 4.04219 | 25955 ft | 465 kts | 283° |
| 2026-05-06 20:04 | 51.15256 | 3.99207 | 25954 ft | 466 kts | 283° |
| 2026-05-06 20:05 | 51.16033 | 3.94194 | 25954 ft | 466 kts | 283° |
| 2026-05-06 20:05 | 51.16801 | 3.89225 | 25950 ft | 466 kts | 283° |
| 2026-05-06 20:05 | 51.17579 | 3.84171 | 25949 ft | 466 kts | 283° |
| 2026-05-06 20:05 | 51.18350 | 3.79155 | 25952 ft | 466 kts | 283° |
| 2026-05-06 20:06 | 51.19120 | 3.74127 | 25951 ft | 466 kts | 283° |
| 2026-05-06 20:06 | 51.19884 | 3.69119 | 25946 ft | 465 kts | 283° |
| 2026-05-06 20:06 | 51.20648 | 3.64098 | 25947 ft | 465 kts | 283° |
| 2026-05-06 20:06 | 51.21408 | 3.59084 | 25955 ft | 465 kts | 283° |
| 2026-05-06 20:07 | 51.22168 | 3.54061 | 25953 ft | 465 kts | 283° |
| 2026-05-06 20:07 | 51.22922 | 3.49056 | 25953 ft | 464 kts | 283° |
| 2026-05-06 20:07 | 51.23675 | 3.44045 | 25954 ft | 464 kts | 283° |
| 2026-05-06 20:07 | 51.24418 | 3.39083 | 25961 ft | 464 kts | 283° |
| 2026-05-06 20:08 | 51.25168 | 3.34055 | 25961 ft | 464 kts | 283° |
| 2026-05-06 20:08 | 51.25915 | 3.29039 | 25968 ft | 464 kts | 282° |
| 2026-05-06 20:08 | 51.26659 | 3.24023 | 25963 ft | 464 kts | 282° |
| 2026-05-06 20:08 | 51.27399 | 3.19016 | 25964 ft | 464 kts | 282° |
| 2026-05-06 20:09 | 51.28139 | 3.13994 | 25963 ft | 463 kts | 282° |
| 2026-05-06 20:09 | 51.28874 | 3.08994 | 25966 ft | 463 kts | 282° |
| 2026-05-06 20:09 | 51.29609 | 3.03971 | 25974 ft | 463 kts | 282° |
| 2026-05-06 20:09 | 51.30341 | 2.98955 | 25972 ft | 463 kts | 282° |
| 2026-05-06 20:10 | 51.31062 | 2.94005 | 25967 ft | 462 kts | 282° |
| 2026-05-06 20:10 | 51.31788 | 2.88993 | 25965 ft | 462 kts | 282° |
| 2026-05-06 20:10 | 51.32510 | 2.83999 | 25968 ft | 462 kts | 282° |
| 2026-05-06 20:10 | 51.33231 | 2.78990 | 25980 ft | 461 kts | 282° |
| 2026-05-06 20:11 | 51.33948 | 2.74000 | 25976 ft | 460 kts | 282° |
| 2026-05-06 20:11 | 51.34660 | 2.69024 | 25977 ft | 459 kts | 282° |
| 2026-05-06 20:11 | 51.35370 | 2.64049 | 25982 ft | 459 kts | 282° |
| 2026-05-06 20:11 | 51.36080 | 2.59059 | 25984 ft | 459 kts | 282° |
| 2026-05-06 20:12 | 51.36786 | 2.54070 | 25984 ft | 460 kts | 282° |
| 2026-05-06 20:12 | 51.37493 | 2.49071 | 25986 ft | 460 kts | 282° |
| 2026-05-06 20:12 | 51.38195 | 2.44082 | 25986 ft | 460 kts | 282° |
| 2026-05-06 20:12 | 51.38897 | 2.39079 | 25990 ft | 460 kts | 282° |
| 2026-05-06 20:13 | 51.39595 | 2.34084 | 25983 ft | 460 kts | 282° |
| 2026-05-06 20:13 | 51.40294 | 2.29072 | 25992 ft | 461 kts | 282° |
| 2026-05-06 20:13 | 51.40992 | 2.24048 | 25993 ft | 462 kts | 282° |
| 2026-05-06 20:13 | 51.41688 | 2.19025 | 25993 ft | 462 kts | 282° |
| 2026-05-06 20:14 | 51.42383 | 2.13983 | 25991 ft | 462 kts | 282° |
| 2026-05-06 20:14 | 51.43075 | 2.08958 | 25995 ft | 462 kts | 282° |
| 2026-05-06 20:14 | 51.43755 | 2.04002 | 25992 ft | 461 kts | 282° |
| 2026-05-06 20:14 | 51.44440 | 1.98976 | 25770 ft | 462 kts | 281° |
| 2026-05-06 20:15 | 51.45092 | 1.93931 | 25385 ft | 461 kts | 281° |
| 2026-05-06 20:15 | 51.45718 | 1.88923 | 25024 ft | 455 kts | 281° |
| 2026-05-06 20:15 | 51.46315 | 1.84007 | 24647 ft | 441 kts | 280° |
| 2026-05-06 20:15 | 51.46859 | 1.79235 | 24275 ft | 427 kts | 279° |
| 2026-05-06 20:16 | 51.47174 | 1.74576 | 23899 ft | 415 kts | 270° |
| 2026-05-06 20:16 | 51.46967 | 1.70031 | 23535 ft | 405 kts | 260° |
| 2026-05-06 20:16 | 51.46243 | 1.65692 | 23098 ft | 399 kts | 249° |
| 2026-05-06 20:16 | 51.45032 | 1.61699 | 22693 ft | 399 kts | 239° |
| 2026-05-06 20:17 | 51.43369 | 1.58134 | 22294 ft | 400 kts | 229° |
| 2026-05-06 20:17 | 51.41388 | 1.55008 | 21907 ft | 399 kts | 224° |
| 2026-05-06 20:17 | 51.39309 | 1.52063 | 21513 ft | 399 kts | 222° |
| 2026-05-06 20:17 | 51.37198 | 1.49167 | 21120 ft | 398 kts | 221° |
| 2026-05-06 20:18 | 51.35101 | 1.46315 | 21003 ft | 394 kts | 221° |
| 2026-05-06 20:18 | 51.33031 | 1.43513 | 21008 ft | 395 kts | 221° |
| 2026-05-06 20:18 | 51.30978 | 1.40586 | 20998 ft | 397 kts | 226° |
| 2026-05-06 20:18 | 51.29110 | 1.37343 | 21008 ft | 397 kts | 230° |
| 2026-05-06 20:19 | 51.27315 | 1.33988 | 20999 ft | 397 kts | 231° |
| 2026-05-06 20:19 | 51.25545 | 1.30620 | 21000 ft | 396 kts | 231° |
| 2026-05-06 20:19 | 51.23774 | 1.27238 | 21002 ft | 396 kts | 231° |
| 2026-05-06 20:19 | 51.22012 | 1.23865 | 21006 ft | 395 kts | 231° |
| 2026-05-06 20:20 | 51.20253 | 1.20496 | 21006 ft | 395 kts | 231° |
| 2026-05-06 20:20 | 51.18494 | 1.17124 | 21009 ft | 395 kts | 231° |
| 2026-05-06 20:20 | 51.16740 | 1.13761 | 20846 ft | 392 kts | 231° |
| 2026-05-06 20:20 | 51.15017 | 1.10462 | 20741 ft | 383 kts | 231° |
| 2026-05-06 20:21 | 51.13314 | 1.07208 | 20709 ft | 381 kts | 231° |
| 2026-05-06 20:21 | 51.11639 | 1.04007 | 20622 ft | 382 kts | 231° |
| 2026-05-06 20:21 | 51.09913 | 1.00712 | 20446 ft | 384 kts | 231° |
| 2026-05-06 20:21 | 51.08220 | 0.97481 | 20278 ft | 385 kts | 231° |
| 2026-05-06 20:22 | 51.06505 | 0.94211 | 19958 ft | 385 kts | 231° |
| 2026-05-06 20:22 | 51.04768 | 0.90910 | 19421 ft | 382 kts | 231° |
| 2026-05-06 20:22 | 51.03072 | 0.87696 | 18953 ft | 378 kts | 231° |
| 2026-05-06 20:22 | 51.01388 | 0.84518 | 18455 ft | 374 kts | 231° |
| 2026-05-06 20:23 | 50.99740 | 0.81412 | 17943 ft | 371 kts | 231° |
| 2026-05-06 20:23 | 50.98082 | 0.78294 | 17388 ft | 368 kts | 231° |
| 2026-05-06 20:23 | 50.96435 | 0.75197 | 16875 ft | 365 kts | 231° |
| 2026-05-06 20:23 | 50.94803 | 0.72131 | 16350 ft | 363 kts | 231° |
| 2026-05-06 20:24 | 50.93178 | 0.69078 | 15838 ft | 361 kts | 231° |
| 2026-05-06 20:24 | 50.91565 | 0.66048 | 15311 ft | 359 kts | 231° |
| 2026-05-06 20:24 | 50.89951 | 0.63017 | 14712 ft | 360 kts | 231° |
| 2026-05-06 20:24 | 50.88356 | 0.60020 | 14128 ft | 348 kts | 231° |
| 2026-05-06 20:25 | 50.86827 | 0.57153 | 13493 ft | 332 kts | 231° |
| 2026-05-06 20:25 | 50.85363 | 0.54419 | 12840 ft | 318 kts | 231° |
| 2026-05-06 20:25 | 50.83976 | 0.51837 | 12192 ft | 300 kts | 231° |
| 2026-05-06 20:25 | 50.82641 | 0.49355 | 11581 ft | 293 kts | 231° |
| 2026-05-06 20:26 | 50.81320 | 0.46896 | 11204 ft | 298 kts | 231° |
| 2026-05-06 20:26 | 50.79979 | 0.44397 | 11040 ft | 294 kts | 231° |
| 2026-05-06 20:26 | 50.78662 | 0.41946 | 11013 ft | 291 kts | 231° |
| 2026-05-06 20:26 | 50.77352 | 0.39513 | 11005 ft | 290 kts | 231° |
| 2026-05-06 20:27 | 50.76293 | 0.36851 | 11000 ft | 288 kts | 252° |
| 2026-05-06 20:27 | 50.76056 | 0.33738 | 11008 ft | 287 kts | 278° |
| 2026-05-06 20:27 | 50.76778 | 0.30861 | 10997 ft | 284 kts | 309° |
| 2026-05-06 20:27 | 50.78361 | 0.29072 | 10988 ft | 285 kts | 341° |
| 2026-05-06 20:28 | 50.80330 | 0.28550 | 10702 ft | 292 kts | 355° |
| 2026-05-06 20:28 | 50.82376 | 0.28396 | 10221 ft | 294 kts | 356° |
| 2026-05-06 20:28 | 50.84371 | 0.28215 | 9708 ft | 283 kts | 355° |
| 2026-05-06 20:28 | 50.86307 | 0.27933 | 9202 ft | 277 kts | 353° |
| 2026-05-06 20:29 | 50.88265 | 0.27559 | 9048 ft | 285 kts | 352° |
| 2026-05-06 20:29 | 50.90223 | 0.27142 | 8988 ft | 281 kts | 351° |
| 2026-05-06 20:29 | 50.92140 | 0.26717 | 8981 ft | 276 kts | 351° |
| 2026-05-06 20:29 | 50.94010 | 0.26240 | 8975 ft | 274 kts | 343° |
| 2026-05-06 20:30 | 50.95647 | 0.24676 | 9003 ft | 278 kts | 310° |
| 2026-05-06 20:30 | 50.96861 | 0.19019 | 9001 ft | 272 kts | 277° |
| 2026-05-06 20:30 | 50.97066 | 0.16051 | 8912 ft | 261 kts | 276° |
| 2026-05-06 20:31 | 50.97242 | 0.13248 | 8642 ft | 258 kts | 276° |
| 2026-05-06 20:31 | 50.97412 | 0.10473 | 8354 ft | 246 kts | 276° |
| 2026-05-06 20:31 | 50.97572 | 0.07819 | 8101 ft | 237 kts | 276° |
| 2026-05-06 20:31 | 50.97729 | 0.05200 | 8047 ft | 237 kts | 276° |
| 2026-05-06 20:32 | 50.97883 | 0.02580 | 8029 ft | 242 kts | 276° |
| 2026-05-06 20:32 | 50.98039 | -0.00074 | 7996 ft | 241 kts | 276° |
| 2026-05-06 20:32 | 50.98143 | -0.01837 | 8007 ft | 240 kts | 276° |
| 2026-05-06 20:32 | 50.98293 | -0.04508 | 8012 ft | 240 kts | 276° |
| 2026-05-06 20:33 | 50.98440 | -0.07182 | 7766 ft | 246 kts | 276° |
| 2026-05-06 20:33 | 50.98589 | -0.09928 | 7276 ft | 254 kts | 276° |
| 2026-05-06 20:33 | 50.98740 | -0.12735 | 6783 ft | 254 kts | 276° |
| 2026-05-06 20:33 | 50.98887 | -0.15498 | 6265 ft | 249 kts | 276° |
| 2026-05-06 20:34 | 50.99032 | -0.18214 | 5739 ft | 244 kts | 276° |
| 2026-05-06 20:34 | 50.99169 | -0.20813 | 5232 ft | 235 kts | 276° |
| 2026-05-06 20:34 | 50.99303 | -0.23377 | 5059 ft | 232 kts | 276° |
| 2026-05-06 20:34 | 50.99442 | -0.25937 | 4983 ft | 232 kts | 276° |
| 2026-05-06 20:35 | 50.99582 | -0.28482 | 4981 ft | 231 kts | 276° |
| 2026-05-06 20:35 | 50.99718 | -0.31034 | 4769 ft | 232 kts | 276° |
| 2026-05-06 20:35 | 50.99914 | -0.33567 | 4357 ft | 228 kts | 287° |
| 2026-05-06 20:35 | 51.00464 | -0.35912 | 4010 ft | 230 kts | 295° |
| 2026-05-06 20:36 | 51.01118 | -0.38248 | 3992 ft | 231 kts | 295° |
| 2026-05-06 20:36 | 51.01773 | -0.40554 | 3980 ft | 228 kts | 295° |
| 2026-05-06 20:36 | 51.02427 | -0.42840 | 3894 ft | 225 kts | 296° |
| 2026-05-06 20:36 | 51.03067 | -0.45087 | 3591 ft | 218 kts | 296° |
| 2026-05-06 20:37 | 51.03674 | -0.47222 | 3304 ft | 206 kts | 296° |
| 2026-05-06 20:37 | 51.04330 | -0.49151 | 3079 ft | 188 kts | 315° |
| 2026-05-06 20:37 | 51.05429 | -0.50136 | 3018 ft | 183 kts | 346° |
| 2026-05-06 20:37 | 51.06648 | -0.50632 | 3010 ft | 180 kts | 346° |
| 2026-05-06 20:38 | 51.07869 | -0.50941 | 2983 ft | 177 kts | 8° |
| 2026-05-06 20:38 | 51.08965 | -0.50056 | 3003 ft | 182 kts | 43° |
| 2026-05-06 20:38 | 51.09829 | -0.48567 | 3013 ft | 186 kts | 46° |
| 2026-05-06 20:38 | 51.10639 | -0.47021 | 2983 ft | 181 kts | 60° |
| 2026-05-06 20:39 | 51.11062 | -0.45143 | 3008 ft | 182 kts | 70° |
| 2026-05-06 20:39 | 51.11427 | -0.43159 | 3001 ft | 183 kts | 73° |
| 2026-05-06 20:39 | 51.11718 | -0.41240 | 2894 ft | 177 kts | 75° |
| 2026-05-06 20:39 | 51.11987 | -0.39336 | 2644 ft | 175 kts | 75° |
| 2026-05-06 20:40 | 51.12246 | -0.37470 | 2412 ft | 170 kts | 75° |
| 2026-05-06 20:40 | 51.12491 | -0.35713 | 2211 ft | 162 kts | 75° |
| 2026-05-06 20:40 | 51.12733 | -0.33986 | 1962 ft | 157 kts | 74° |
| 2026-05-06 20:40 | 51.12969 | -0.32287 | 1772 ft | 158 kts | 74° |
| 2026-05-06 20:41 | 51.13208 | -0.30580 | 1535 ft | 156 kts | 75° |
| 2026-05-06 20:41 | 51.13433 | -0.28960 | 1329 ft | 145 kts | 75° |
| 2026-05-06 20:41 | 51.13644 | -0.27443 | 1124 ft | 137 kts | 75° |
| 2026-05-06 20:41 | 51.13852 | -0.25962 | 963 ft | 136 kts | 76° |
| 2026-05-06 20:42 | 51.14054 | -0.24502 | 756 ft | 135 kts | 77° |
| 2026-05-06 20:42 | 51.14259 | -0.23033 | 584 ft | 136 kts | 78° |
| 2026-05-06 20:42 | 51.14463 | -0.21570 | 394 ft | 135 kts | 78° |
| 2026-05-06 20:42 | 51.14669 | -0.20119 | 219 ft | 131 kts | 78° |
| 2026-05-06 20:43 | 51.14831 | -0.18904 | 218 ft | 91 kts | 78° |
| 2026-05-06 20:43 | 51.14938 | -0.18164 | 216 ft | 48 kts | 76° |
| 2026-05-06 20:43 | 51.15061 | -0.17794 | 221 ft | 16 kts | 42° |
| 2026-05-06 20:43 | 51.15087 | -0.17774 | 218 ft | 0 kts | 15° |
| 2026-05-06 20:44 | 51.15092 | -0.17772 | 218 ft | 8 kts | 12° |
| 2026-05-06 20:44 | 51.15209 | -0.17780 | 212 ft | 0 kts | 352° |
| 2026-05-06 20:46 | 51.15234 | -0.17777 | 214 ft | 8 kts | 17° |
| 2026-05-06 20:46 | 51.15272 | -0.17666 | 215 ft | 15 kts | 77° |
| 2026-05-06 20:46 | 51.15298 | -0.17473 | 214 ft | 15 kts | 79° |
| 2026-05-06 20:46 | 51.15369 | -0.17384 | 217 ft | 15 kts | 356° |
| 2026-05-06 20:47 | 51.15481 | -0.17419 | 212 ft | 16 kts | 347° |
| 2026-05-06 20:47 | 51.15552 | -0.17439 | 215 ft | 0 kts | 5° |
| 2026-05-06 20:47 | 51.15564 | -0.17434 | 215 ft | 6 kts | 16° |
| 2026-05-06 20:47 | 51.15565 | -0.17434 | 215 ft | 2 kts | 17° |
| 2026-05-06 20:48 | 51.15555 | -0.17439 | 215 ft | 2 kts | 17° |
| 2026-05-06 20:48 | 51.15539 | -0.17442 | 215 ft | 2 kts | 351° |
| 2026-05-06 20:48 | 51.15526 | -0.17439 | 218 ft | 0 kts | 351° |
| 2026-05-06 20:51 | 51.15532 | -0.17440 | 217 ft | 4 kts | 352° |
| 2026-05-06 20:51 | 51.15589 | -0.17386 | 219 ft | 14 kts | 58° |
| 2026-05-06 20:51 | 51.15618 | -0.17222 | 217 ft | 17 kts | 77° |
| 2026-05-06 20:51 | 51.15648 | -0.17018 | 209 ft | 21 kts | 77° |
| 2026-05-06 20:52 | 51.15669 | -0.16854 | 215 ft | 9 kts | 97° |
| 2026-05-06 20:52 | 51.15628 | -0.16794 | 218 ft | 5 kts | 160° |
| 2026-05-06 20:52 | 51.15604 | -0.16785 | 218 ft | 1 kts | 166° |
| 2026-05-06 20:52 | 51.15601 | -0.16783 | 218 ft | 0 kts | 166° |